sensor_id;sensor_type;location;lat;lon;timestamp;P1;durP1;ratioP1;P2;durP2;ratioP2
36931;SDS011;22847;42.654;23.370;2023-04-03T00:00:37;5.63;;;3.17;;
36931;SDS011;22847;42.654;23.370;2023-04-03T00:03:03;5.13;;;2.85;;
36931;SDS011;22847;42.654;23.370;2023-04-03T00:05:28;3.83;;;2.38;;
36931;SDS011;22847;42.654;23.370;2023-04-03T00:07:54;8.80;;;2.80;;
36931;SDS011;22847;42.654;23.370;2023-04-03T00:10:19;5.65;;;2.45;;
36931;SDS011;22847;42.654;23.370;2023-04-03T00:12:45;4.53;;;2.72;;
36931;SDS011;22847;42.654;23.370;2023-04-03T00:15:10;4.47;;;2.78;;
36931;SDS011;22847;42.654;23.370;2023-04-03T00:17:36;4.32;;;2.67;;
36931;SDS011;22847;42.654;23.370;2023-04-03T00:20:02;6.00;;;2.67;;
36931;SDS011;22847;42.654;23.370;2023-04-03T00:22:28;7.13;;;2.78;;
36931;SDS011;22847;42.654;23.370;2023-04-03T00:24:54;6.22;;;2.78;;
36931;SDS011;22847;42.654;23.370;2023-04-03T00:27:20;8.82;;;2.28;;
36931;SDS011;22847;42.654;23.370;2023-04-03T00:29:45;3.85;;;2.33;;
36931;SDS011;22847;42.654;23.370;2023-04-03T00:32:11;4.35;;;2.65;;
36931;SDS011;22847;42.654;23.370;2023-04-03T00:34:36;5.40;;;2.63;;
36931;SDS011;22847;42.654;23.370;2023-04-03T00:37:02;9.52;;;2.60;;
36931;SDS011;22847;42.654;23.370;2023-04-03T00:39:27;4.43;;;2.60;;
36931;SDS011;22847;42.654;23.370;2023-04-03T00:41:53;5.10;;;2.75;;
36931;SDS011;22847;42.654;23.370;2023-04-03T00:44:19;6.68;;;2.90;;
36931;SDS011;22847;42.654;23.370;2023-04-03T00:46:46;5.53;;;2.25;;
36931;SDS011;22847;42.654;23.370;2023-04-03T00:49:11;5.35;;;2.72;;
36931;SDS011;22847;42.654;23.370;2023-04-03T00:51:37;3.30;;;2.55;;
36931;SDS011;22847;42.654;23.370;2023-04-03T00:54:02;6.45;;;3.47;;
36931;SDS011;22847;42.654;23.370;2023-04-03T00:56:32;3.75;;;2.58;;
36931;SDS011;22847;42.654;23.370;2023-04-03T00:59:02;6.78;;;2.72;;
36931;SDS011;22847;42.654;23.370;2023-04-03T01:01:31;6.25;;;2.92;;
36931;SDS011;22847;42.654;23.370;2023-04-03T01:03:58;4.18;;;2.72;;
36931;SDS011;22847;42.654;23.370;2023-04-03T01:06:26;4.57;;;2.42;;
36931;SDS011;22847;42.654;23.370;2023-04-03T01:08:55;4.15;;;2.63;;
36931;SDS011;22847;42.654;23.370;2023-04-03T01:11:21;4.63;;;2.40;;
36931;SDS011;22847;42.654;23.370;2023-04-03T01:13:47;5.07;;;2.30;;
36931;SDS011;22847;42.654;23.370;2023-04-03T01:16:14;5.45;;;2.22;;
36931;SDS011;22847;42.654;23.370;2023-04-03T01:18:39;3.45;;;2.55;;
36931;SDS011;22847;42.654;23.370;2023-04-03T01:21:12;4.18;;;2.30;;
36931;SDS011;22847;42.654;23.370;2023-04-03T01:26:58;4.97;;;2.28;;
36931;SDS011;22847;42.654;23.370;2023-04-03T01:29:24;5.68;;;2.47;;
36931;SDS011;22847;42.654;23.370;2023-04-03T01:31:53;4.15;;;2.35;;
36931;SDS011;22847;42.654;23.370;2023-04-03T01:34:21;6.00;;;2.63;;
36931;SDS011;22847;42.654;23.370;2023-04-03T01:36:47;4.25;;;2.50;;
36931;SDS011;22847;42.654;23.370;2023-04-03T01:39:12;4.13;;;2.25;;
36931;SDS011;22847;42.654;23.370;2023-04-03T01:41:38;3.65;;;2.45;;
36931;SDS011;22847;42.654;23.370;2023-04-03T01:44:04;6.38;;;2.63;;
36931;SDS011;22847;42.654;23.370;2023-04-03T01:46:30;6.43;;;2.97;;
36931;SDS011;22847;42.654;23.370;2023-04-03T01:48:56;6.43;;;3.10;;
36931;SDS011;22847;42.654;23.370;2023-04-03T01:51:21;8.48;;;2.88;;
36931;SDS011;22847;42.654;23.370;2023-04-03T01:53:47;4.60;;;2.97;;
36931;SDS011;22847;42.654;23.370;2023-04-03T01:56:12;6.22;;;2.78;;
36931;SDS011;22847;42.654;23.370;2023-04-03T01:58:37;6.25;;;3.28;;
36931;SDS011;22847;42.654;23.370;2023-04-03T02:01:03;7.90;;;2.97;;
36931;SDS011;22847;42.654;23.370;2023-04-03T02:03:29;13.95;;;3.35;;
36931;SDS011;22847;42.654;23.370;2023-04-03T02:05:54;5.68;;;2.95;;
36931;SDS011;22847;42.654;23.370;2023-04-03T02:08:20;9.82;;;3.20;;
36931;SDS011;22847;42.654;23.370;2023-04-03T02:10:49;10.10;;;3.33;;
36931;SDS011;22847;42.654;23.370;2023-04-03T02:13:15;6.20;;;3.00;;
36931;SDS011;22847;42.654;23.370;2023-04-03T02:15:41;5.45;;;3.03;;
36931;SDS011;22847;42.654;23.370;2023-04-03T02:18:08;8.18;;;2.60;;
36931;SDS011;22847;42.654;23.370;2023-04-03T02:20:33;3.80;;;2.63;;
36931;SDS011;22847;42.654;23.370;2023-04-03T02:22:59;5.47;;;2.97;;
36931;SDS011;22847;42.654;23.370;2023-04-03T02:25:25;6.50;;;3.70;;
36931;SDS011;22847;42.654;23.370;2023-04-03T02:27:51;5.97;;;3.53;;
36931;SDS011;22847;42.654;23.370;2023-04-03T02:30:16;6.95;;;4.05;;
36931;SDS011;22847;42.654;23.370;2023-04-03T02:32:42;8.57;;;3.15;;
36931;SDS011;22847;42.654;23.370;2023-04-03T02:35:08;5.68;;;3.22;;
36931;SDS011;22847;42.654;23.370;2023-04-03T02:37:35;7.32;;;3.45;;
36931;SDS011;22847;42.654;23.370;2023-04-03T02:40:01;10.20;;;4.40;;
36931;SDS011;22847;42.654;23.370;2023-04-03T02:42:27;10.63;;;3.90;;
36931;SDS011;22847;42.654;23.370;2023-04-03T02:44:53;10.13;;;3.58;;
36931;SDS011;22847;42.654;23.370;2023-04-03T02:47:18;10.63;;;3.63;;
36931;SDS011;22847;42.654;23.370;2023-04-03T02:49:43;11.80;;;3.97;;
36931;SDS011;22847;42.654;23.370;2023-04-03T02:52:10;7.68;;;3.10;;
36931;SDS011;22847;42.654;23.370;2023-04-03T02:54:36;11.00;;;3.90;;
36931;SDS011;22847;42.654;23.370;2023-04-03T02:57:02;10.45;;;3.33;;
36931;SDS011;22847;42.654;23.370;2023-04-03T02:59:27;7.32;;;3.15;;
36931;SDS011;22847;42.654;23.370;2023-04-03T03:01:53;6.68;;;3.30;;
36931;SDS011;22847;42.654;23.370;2023-04-03T03:04:18;10.07;;;3.15;;
36931;SDS011;22847;42.654;23.370;2023-04-03T03:06:44;6.18;;;3.47;;
36931;SDS011;22847;42.654;23.370;2023-04-03T03:09:09;8.73;;;3.10;;
36931;SDS011;22847;42.654;23.370;2023-04-03T03:11:35;8.25;;;3.08;;
36931;SDS011;22847;42.654;23.370;2023-04-03T03:14:00;7.88;;;2.97;;
36931;SDS011;22847;42.654;23.370;2023-04-03T03:16:26;11.68;;;3.67;;
36931;SDS011;22847;42.654;23.370;2023-04-03T03:18:51;8.48;;;3.63;;
36931;SDS011;22847;42.654;23.370;2023-04-03T03:21:17;7.63;;;3.00;;
36931;SDS011;22847;42.654;23.370;2023-04-03T03:23:42;10.68;;;3.20;;
36931;SDS011;22847;42.654;23.370;2023-04-03T03:26:08;8.25;;;3.20;;
36931;SDS011;22847;42.654;23.370;2023-04-03T03:28:35;8.93;;;3.00;;
36931;SDS011;22847;42.654;23.370;2023-04-03T03:31:02;7.82;;;3.47;;
36931;SDS011;22847;42.654;23.370;2023-04-03T03:33:28;4.75;;;2.53;;
36931;SDS011;22847;42.654;23.370;2023-04-03T03:35:54;11.48;;;3.00;;
36931;SDS011;22847;42.654;23.370;2023-04-03T03:38:20;9.10;;;3.05;;
36931;SDS011;22847;42.654;23.370;2023-04-03T03:40:49;6.47;;;2.95;;
36931;SDS011;22847;42.654;23.370;2023-04-03T03:43:16;7.30;;;2.90;;
36931;SDS011;22847;42.654;23.370;2023-04-03T03:45:42;9.57;;;3.25;;
36931;SDS011;22847;42.654;23.370;2023-04-03T03:48:08;5.93;;;3.25;;
36931;SDS011;22847;42.654;23.370;2023-04-03T03:50:33;5.05;;;2.67;;
36931;SDS011;22847;42.654;23.370;2023-04-03T03:52:58;8.00;;;2.75;;
36931;SDS011;22847;42.654;23.370;2023-04-03T03:55:24;8.20;;;3.00;;
36931;SDS011;22847;42.654;23.370;2023-04-03T03:57:50;6.32;;;2.63;;
36931;SDS011;22847;42.654;23.370;2023-04-03T04:00:15;4.10;;;2.28;;
36931;SDS011;22847;42.654;23.370;2023-04-03T04:02:41;6.40;;;2.58;;
36931;SDS011;22847;42.654;23.370;2023-04-03T04:05:07;7.53;;;2.72;;
36931;SDS011;22847;42.654;23.370;2023-04-03T04:07:32;7.18;;;2.85;;
36931;SDS011;22847;42.654;23.370;2023-04-03T04:09:58;11.23;;;2.85;;
36931;SDS011;22847;42.654;23.370;2023-04-03T04:12:23;8.02;;;3.15;;
36931;SDS011;22847;42.654;23.370;2023-04-03T04:14:49;8.10;;;3.28;;
36931;SDS011;22847;42.654;23.370;2023-04-03T04:17:14;4.35;;;2.75;;
36931;SDS011;22847;42.654;23.370;2023-04-03T04:19:40;7.40;;;3.63;;
36931;SDS011;22847;42.654;23.370;2023-04-03T04:22:05;7.50;;;3.17;;
36931;SDS011;22847;42.654;23.370;2023-04-03T04:24:31;9.10;;;4.03;;
36931;SDS011;22847;42.654;23.370;2023-04-03T04:26:56;12.13;;;3.85;;
36931;SDS011;22847;42.654;23.370;2023-04-03T04:29:21;6.15;;;3.25;;
36931;SDS011;22847;42.654;23.370;2023-04-03T04:31:47;11.05;;;3.60;;
36931;SDS011;22847;42.654;23.370;2023-04-03T04:34:12;7.65;;;3.90;;
36931;SDS011;22847;42.654;23.370;2023-04-03T04:36:38;8.13;;;3.13;;
36931;SDS011;22847;42.654;23.370;2023-04-03T04:39:04;10.20;;;3.45;;
36931;SDS011;22847;42.654;23.370;2023-04-03T04:41:30;7.68;;;3.42;;
36931;SDS011;22847;42.654;23.370;2023-04-03T04:43:56;12.68;;;4.70;;
36931;SDS011;22847;42.654;23.370;2023-04-03T04:46:21;7.80;;;3.72;;
36931;SDS011;22847;42.654;23.370;2023-04-03T04:48:47;8.65;;;3.67;;
36931;SDS011;22847;42.654;23.370;2023-04-03T04:51:13;10.95;;;3.50;;
36931;SDS011;22847;42.654;23.370;2023-04-03T04:53:39;10.15;;;3.97;;
36931;SDS011;22847;42.654;23.370;2023-04-03T04:56:05;10.23;;;3.75;;
36931;SDS011;22847;42.654;23.370;2023-04-03T04:58:31;8.82;;;3.80;;
36931;SDS011;22847;42.654;23.370;2023-04-03T05:01:03;14.43;;;4.32;;
36931;SDS011;22847;42.654;23.370;2023-04-03T05:03:33;19.55;;;5.13;;
36931;SDS011;22847;42.654;23.370;2023-04-03T05:05:58;13.25;;;7.85;;
36931;SDS011;22847;42.654;23.370;2023-04-03T05:08:24;17.10;;;12.65;;
36931;SDS011;22847;42.654;23.370;2023-04-03T05:10:49;16.13;;;8.52;;
36931;SDS011;22847;42.654;23.370;2023-04-03T05:13:15;14.48;;;5.90;;
36931;SDS011;22847;42.654;23.370;2023-04-03T05:15:42;12.73;;;5.10;;
36931;SDS011;22847;42.654;23.370;2023-04-03T05:18:07;8.50;;;4.40;;
36931;SDS011;22847;42.654;23.370;2023-04-03T05:20:33;7.95;;;4.22;;
36931;SDS011;22847;42.654;23.370;2023-04-03T05:23:00;10.55;;;4.32;;
36931;SDS011;22847;42.654;23.370;2023-04-03T05:25:26;10.32;;;3.95;;
36931;SDS011;22847;42.654;23.370;2023-04-03T05:27:52;6.55;;;3.60;;
36931;SDS011;22847;42.654;23.370;2023-04-03T05:30:17;8.90;;;3.35;;
36931;SDS011;22847;42.654;23.370;2023-04-03T05:32:43;8.32;;;3.60;;
36931;SDS011;22847;42.654;23.370;2023-04-03T05:35:08;18.88;;;5.65;;
36931;SDS011;22847;42.654;23.370;2023-04-03T05:37:35;18.33;;;6.03;;
36931;SDS011;22847;42.654;23.370;2023-04-03T05:40:00;9.95;;;4.80;;
36931;SDS011;22847;42.654;23.370;2023-04-03T05:42:26;17.10;;;5.53;;
36931;SDS011;22847;42.654;23.370;2023-04-03T05:44:51;20.90;;;7.05;;
36931;SDS011;22847;42.654;23.370;2023-04-03T05:47:17;13.23;;;7.13;;
36931;SDS011;22847;42.654;23.370;2023-04-03T05:49:44;19.85;;;7.63;;
36931;SDS011;22847;42.654;23.370;2023-04-03T05:54:55;28.55;;;9.80;;
36931;SDS011;22847;42.654;23.370;2023-04-03T05:57:21;26.65;;;10.60;;
36931;SDS011;22847;42.654;23.370;2023-04-03T05:59:47;24.95;;;10.32;;
36931;SDS011;22847;42.654;23.370;2023-04-03T06:02:14;25.88;;;11.70;;
36931;SDS011;22847;42.654;23.370;2023-04-03T06:04:46;31.58;;;11.10;;
36931;SDS011;22847;42.654;23.370;2023-04-03T06:07:13;20.52;;;10.63;;
36931;SDS011;22847;42.654;23.370;2023-04-03T06:09:40;23.77;;;8.85;;
36931;SDS011;22847;42.654;23.370;2023-04-03T06:12:06;20.10;;;8.35;;
36931;SDS011;22847;42.654;23.370;2023-04-03T06:14:31;23.45;;;8.55;;
36931;SDS011;22847;42.654;23.370;2023-04-03T06:16:57;20.67;;;8.35;;
36931;SDS011;22847;42.654;23.370;2023-04-03T06:19:23;19.90;;;8.10;;
36931;SDS011;22847;42.654;23.370;2023-04-03T06:21:48;14.95;;;7.45;;
36931;SDS011;22847;42.654;23.370;2023-04-03T06:24:15;18.13;;;7.72;;
36931;SDS011;22847;42.654;23.370;2023-04-03T06:26:41;20.48;;;7.40;;
36931;SDS011;22847;42.654;23.370;2023-04-03T06:29:07;19.25;;;7.47;;
36931;SDS011;22847;42.654;23.370;2023-04-03T06:31:33;26.75;;;8.20;;
36931;SDS011;22847;42.654;23.370;2023-04-03T06:33:58;19.92;;;8.32;;
36931;SDS011;22847;42.654;23.370;2023-04-03T06:36:24;21.77;;;7.40;;
36931;SDS011;22847;42.654;23.370;2023-04-03T06:38:50;20.15;;;7.80;;
36931;SDS011;22847;42.654;23.370;2023-04-03T06:41:16;24.08;;;8.00;;
36931;SDS011;22847;42.654;23.370;2023-04-03T06:43:43;21.40;;;8.30;;
36931;SDS011;22847;42.654;23.370;2023-04-03T06:46:13;24.70;;;9.20;;
36931;SDS011;22847;42.654;23.370;2023-04-03T06:48:40;19.80;;;9.18;;
36931;SDS011;22847;42.654;23.370;2023-04-03T06:51:06;14.63;;;7.15;;
36931;SDS011;22847;42.654;23.370;2023-04-03T06:53:43;15.65;;;7.65;;
36931;SDS011;22847;42.654;23.370;2023-04-03T06:56:09;23.45;;;7.63;;
36931;SDS011;22847;42.654;23.370;2023-04-03T06:58:35;14.93;;;6.88;;
36931;SDS011;22847;42.654;23.370;2023-04-03T07:01:01;19.65;;;6.57;;
36931;SDS011;22847;42.654;23.370;2023-04-03T07:03:26;16.33;;;6.00;;
36931;SDS011;22847;42.654;23.370;2023-04-03T07:05:51;12.70;;;5.90;;
36931;SDS011;22847;42.654;23.370;2023-04-03T07:08:17;14.68;;;6.32;;
36931;SDS011;22847;42.654;23.370;2023-04-03T07:10:42;16.40;;;6.88;;
36931;SDS011;22847;42.654;23.370;2023-04-03T07:13:07;16.75;;;7.47;;
36931;SDS011;22847;42.654;23.370;2023-04-03T07:15:33;13.40;;;7.13;;
36931;SDS011;22847;42.654;23.370;2023-04-03T07:17:58;13.13;;;7.05;;
36931;SDS011;22847;42.654;23.370;2023-04-03T07:20:24;13.82;;;6.85;;
36931;SDS011;22847;42.654;23.370;2023-04-03T07:22:49;23.15;;;7.95;;
36931;SDS011;22847;42.654;23.370;2023-04-03T07:25:15;27.40;;;8.00;;
36931;SDS011;22847;42.654;23.370;2023-04-03T07:27:41;22.65;;;9.30;;
36931;SDS011;22847;42.654;23.370;2023-04-03T07:30:06;25.35;;;9.90;;
36931;SDS011;22847;42.654;23.370;2023-04-03T07:32:32;25.83;;;10.27;;
36931;SDS011;22847;42.654;23.370;2023-04-03T07:34:58;24.80;;;9.90;;
36931;SDS011;22847;42.654;23.370;2023-04-03T07:37:23;28.05;;;10.45;;
36931;SDS011;22847;42.654;23.370;2023-04-03T07:39:48;28.63;;;10.52;;
36931;SDS011;22847;42.654;23.370;2023-04-03T07:42:14;22.73;;;10.30;;
36931;SDS011;22847;42.654;23.370;2023-04-03T07:44:39;30.98;;;11.80;;
36931;SDS011;22847;42.654;23.370;2023-04-03T07:47:06;25.25;;;12.10;;
36931;SDS011;22847;42.654;23.370;2023-04-03T07:49:31;26.10;;;14.10;;
36931;SDS011;22847;42.654;23.370;2023-04-03T07:51:57;47.83;;;15.90;;
36931;SDS011;22847;42.654;23.370;2023-04-03T07:54:23;41.08;;;17.25;;
36931;SDS011;22847;42.654;23.370;2023-04-03T07:56:49;45.08;;;16.33;;
36931;SDS011;22847;42.654;23.370;2023-04-03T07:59:14;38.03;;;16.08;;
36931;SDS011;22847;42.654;23.370;2023-04-03T08:01:39;44.08;;;16.33;;
36931;SDS011;22847;42.654;23.370;2023-04-03T08:04:05;43.63;;;16.33;;
36931;SDS011;22847;42.654;23.370;2023-04-03T08:06:31;29.52;;;16.05;;
36931;SDS011;22847;42.654;23.370;2023-04-03T08:08:59;36.10;;;15.35;;
36931;SDS011;22847;42.654;23.370;2023-04-03T08:11:25;43.75;;;15.00;;
36931;SDS011;22847;42.654;23.370;2023-04-03T08:13:51;37.67;;;18.05;;
36931;SDS011;22847;42.654;23.370;2023-04-03T08:16:18;34.08;;;16.95;;
36931;SDS011;22847;42.654;23.370;2023-04-03T08:18:46;37.42;;;16.77;;
36931;SDS011;22847;42.654;23.370;2023-04-03T08:21:12;34.08;;;15.30;;
36931;SDS011;22847;42.654;23.370;2023-04-03T08:23:38;47.63;;;15.23;;
36931;SDS011;22847;42.654;23.370;2023-04-03T08:26:11;36.03;;;15.77;;
36931;SDS011;22847;42.654;23.370;2023-04-03T08:28:38;39.05;;;15.57;;
36931;SDS011;22847;42.654;23.370;2023-04-03T08:31:05;35.15;;;16.63;;
36931;SDS011;22847;42.654;23.370;2023-04-03T08:33:32;41.22;;;15.75;;
36931;SDS011;22847;42.654;23.370;2023-04-03T08:36:00;36.47;;;16.17;;
36931;SDS011;22847;42.654;23.370;2023-04-03T08:38:26;32.53;;;14.27;;
36931;SDS011;22847;42.654;23.370;2023-04-03T08:49:33;36.83;;;16.25;;
36931;SDS011;22847;42.654;23.370;2023-04-03T08:52:12;31.35;;;15.80;;
36931;SDS011;22847;42.654;23.370;2023-04-03T08:54:48;33.08;;;15.35;;
36931;SDS011;22847;42.654;23.370;2023-04-03T08:57:21;38.40;;;14.10;;
36931;SDS011;22847;42.654;23.370;2023-04-03T09:00:00;33.53;;;14.32;;
36931;SDS011;22847;42.654;23.370;2023-04-03T09:05:13;36.50;;;13.73;;
36931;SDS011;22847;42.654;23.370;2023-04-03T09:07:43;35.28;;;14.48;;
36931;SDS011;22847;42.654;23.370;2023-04-03T09:10:15;26.73;;;11.82;;
36931;SDS011;22847;42.654;23.370;2023-04-03T09:12:53;26.67;;;12.27;;
36931;SDS011;22847;42.654;23.370;2023-04-03T09:15:43;39.85;;;13.43;;
36931;SDS011;22847;42.654;23.370;2023-04-03T09:18:32;25.35;;;12.85;;
36931;SDS011;22847;42.654;23.370;2023-04-03T09:21:08;22.58;;;11.90;;
36931;SDS011;22847;42.654;23.370;2023-04-03T09:23:55;31.10;;;11.95;;
36931;SDS011;22847;42.654;23.370;2023-04-03T09:26:26;20.08;;;10.98;;
36931;SDS011;22847;42.654;23.370;2023-04-03T09:28:56;23.42;;;10.98;;
36931;SDS011;22847;42.654;23.370;2023-04-03T09:31:26;22.83;;;10.27;;
36931;SDS011;22847;42.654;23.370;2023-04-03T09:34:02;23.38;;;10.35;;
36931;SDS011;22847;42.654;23.370;2023-04-03T09:39:31;18.13;;;9.93;;
36931;SDS011;22847;42.654;23.370;2023-04-03T09:42:05;23.05;;;9.95;;
36931;SDS011;22847;42.654;23.370;2023-04-03T09:44:41;14.55;;;7.43;;
36931;SDS011;22847;42.654;23.370;2023-04-03T09:52:45;8.75;;;5.38;;
36931;SDS011;22847;42.654;23.370;2023-04-03T09:57:42;5.65;;;4.00;;
36931;SDS011;22847;42.654;23.370;2023-04-03T10:00:28;5.32;;;3.78;;
36931;SDS011;22847;42.654;23.370;2023-04-03T10:02:58;7.78;;;4.40;;
36931;SDS011;22847;42.654;23.370;2023-04-03T10:07:49;13.18;;;6.32;;
36931;SDS011;22847;42.654;23.370;2023-04-03T10:12:42;10.30;;;5.68;;
36931;SDS011;22847;42.654;23.370;2023-04-03T10:15:11;17.48;;;5.15;;
36931;SDS011;22847;42.654;23.370;2023-04-03T10:17:57;9.82;;;4.95;;
36931;SDS011;22847;42.654;23.370;2023-04-03T10:20:34;12.18;;;5.75;;
36931;SDS011;22847;42.654;23.370;2023-04-03T10:34:13;7.45;;;3.78;;
36931;SDS011;22847;42.654;23.370;2023-04-03T10:42:56;4.65;;;3.30;;
36931;SDS011;22847;42.654;23.370;2023-04-03T10:48:11;5.30;;;3.00;;
36931;SDS011;22847;42.654;23.370;2023-04-03T11:01:34;6.68;;;2.38;;
36931;SDS011;22847;42.654;23.370;2023-04-03T11:04:04;5.68;;;2.55;;
36931;SDS011;22847;42.654;23.370;2023-04-03T11:06:50;12.77;;;3.33;;
36931;SDS011;22847;42.654;23.370;2023-04-03T11:12:08;5.03;;;2.75;;
36931;SDS011;22847;42.654;23.370;2023-04-03T11:14:55;8.10;;;3.08;;
36931;SDS011;22847;42.654;23.370;2023-04-03T11:19:59;10.18;;;3.22;;
36931;SDS011;22847;42.654;23.370;2023-04-03T11:22:30;7.18;;;3.25;;
36931;SDS011;22847;42.654;23.370;2023-04-03T11:25:02;10.63;;;3.45;;
36931;SDS011;22847;42.654;23.370;2023-04-03T11:27:37;4.55;;;2.90;;
36931;SDS011;22847;42.654;23.370;2023-04-03T11:30:11;5.70;;;3.08;;
36931;SDS011;22847;42.654;23.370;2023-04-03T11:38:45;5.22;;;2.63;;
36931;SDS011;22847;42.654;23.370;2023-04-03T11:41:12;5.03;;;2.67;;
36931;SDS011;22847;42.654;23.370;2023-04-03T11:44:01;4.43;;;2.65;;
36931;SDS011;22847;42.654;23.370;2023-04-03T12:16:04;8.40;;;3.33;;
36931;SDS011;22847;42.654;23.370;2023-04-03T12:18:36;6.28;;;3.63;;
36931;SDS011;22847;42.654;23.370;2023-04-03T12:21:14;8.00;;;3.30;;
36931;SDS011;22847;42.654;23.370;2023-04-03T12:26:31;4.35;;;2.70;;
36931;SDS011;22847;42.654;23.370;2023-04-03T12:29:01;11.82;;;3.17;;
36931;SDS011;22847;42.654;23.370;2023-04-03T12:35:00;4.00;;;2.60;;
36931;SDS011;22847;42.654;23.370;2023-04-03T12:48:22;14.02;;;4.03;;
36931;SDS011;22847;42.654;23.370;2023-04-03T12:50:51;8.93;;;3.60;;
36931;SDS011;22847;42.654;23.370;2023-04-03T12:53:19;4.60;;;3.42;;
36931;SDS011;22847;42.654;23.370;2023-04-03T12:55:47;9.10;;;3.80;;
36931;SDS011;22847;42.654;23.370;2023-04-03T12:58:27;8.15;;;3.72;;
36931;SDS011;22847;42.654;23.370;2023-04-03T13:01:03;7.72;;;3.67;;
36931;SDS011;22847;42.654;23.370;2023-04-03T13:03:35;6.32;;;3.80;;
36931;SDS011;22847;42.654;23.370;2023-04-03T13:06:04;9.57;;;3.83;;
36931;SDS011;22847;42.654;23.370;2023-04-03T13:08:30;7.50;;;3.80;;
36931;SDS011;22847;42.654;23.370;2023-04-03T13:11:04;9.60;;;3.80;;
36931;SDS011;22847;42.654;23.370;2023-04-03T13:13:33;9.43;;;3.90;;
36931;SDS011;22847;42.654;23.370;2023-04-03T13:15:58;5.43;;;3.97;;
36931;SDS011;22847;42.654;23.370;2023-04-03T13:18:26;9.13;;;3.90;;
36931;SDS011;22847;42.654;23.370;2023-04-03T13:20:51;8.55;;;4.20;;
36931;SDS011;22847;42.654;23.370;2023-04-03T13:23:18;8.50;;;4.93;;
36931;SDS011;22847;42.654;23.370;2023-04-03T13:25:45;8.23;;;4.50;;
36931;SDS011;22847;42.654;23.370;2023-04-03T13:28:13;8.50;;;4.55;;
36931;SDS011;22847;42.654;23.370;2023-04-03T13:33:32;8.15;;;4.40;;
36931;SDS011;22847;42.654;23.370;2023-04-03T13:36:04;10.63;;;4.78;;
36931;SDS011;22847;42.654;23.370;2023-04-03T13:38:41;9.95;;;5.13;;
36931;SDS011;22847;42.654;23.370;2023-04-03T13:42:14;16.30;;;10.05;;
36931;SDS011;22847;42.654;23.370;2023-04-03T13:46:40;7.53;;;5.18;;
36931;SDS011;22847;42.654;23.370;2023-04-03T13:49:17;9.00;;;5.57;;
36931;SDS011;22847;42.654;23.370;2023-04-03T13:51:45;6.32;;;4.53;;
36931;SDS011;22847;42.654;23.370;2023-04-03T13:54:21;8.23;;;5.80;;
36931;SDS011;22847;42.654;23.370;2023-04-03T13:56:55;9.23;;;4.82;;
36931;SDS011;22847;42.654;23.370;2023-04-03T13:59:23;8.00;;;5.15;;
36931;SDS011;22847;42.654;23.370;2023-04-03T14:04:31;8.15;;;5.10;;
36931;SDS011;22847;42.654;23.370;2023-04-03T14:07:10;10.00;;;4.82;;
36931;SDS011;22847;42.654;23.370;2023-04-03T14:09:37;9.65;;;4.75;;
36931;SDS011;22847;42.654;23.370;2023-04-03T14:12:07;8.52;;;5.18;;
36931;SDS011;22847;42.654;23.370;2023-04-03T14:14:37;8.95;;;5.50;;
36931;SDS011;22847;42.654;23.370;2023-04-03T14:17:13;7.38;;;5.03;;
36931;SDS011;22847;42.654;23.370;2023-04-03T14:19:43;14.32;;;5.10;;
36931;SDS011;22847;42.654;23.370;2023-04-03T14:22:15;8.50;;;5.18;;
36931;SDS011;22847;42.654;23.370;2023-04-03T14:24:47;10.20;;;5.63;;
36931;SDS011;22847;42.654;23.370;2023-04-03T14:27:16;8.32;;;4.22;;
36931;SDS011;22847;42.654;23.370;2023-04-03T14:29:42;7.32;;;5.35;;
36931;SDS011;22847;42.654;23.370;2023-04-03T14:32:09;14.02;;;5.20;;
36931;SDS011;22847;42.654;23.370;2023-04-03T14:34:37;7.63;;;5.38;;
36931;SDS011;22847;42.654;23.370;2023-04-03T14:37:04;9.43;;;5.88;;
36931;SDS011;22847;42.654;23.370;2023-04-03T14:39:30;8.15;;;5.63;;
36931;SDS011;22847;42.654;23.370;2023-04-03T14:41:55;7.70;;;5.07;;
36931;SDS011;22847;42.654;23.370;2023-04-03T14:44:21;9.90;;;5.35;;
36931;SDS011;22847;42.654;23.370;2023-04-03T14:46:47;10.25;;;5.32;;
36931;SDS011;22847;42.654;23.370;2023-04-03T14:49:18;8.60;;;4.88;;
36931;SDS011;22847;42.654;23.370;2023-04-03T14:51:45;8.02;;;5.38;;
36931;SDS011;22847;42.654;23.370;2023-04-03T14:54:15;7.32;;;5.07;;
36931;SDS011;22847;42.654;23.370;2023-04-03T14:56:43;12.57;;;6.63;;
36931;SDS011;22847;42.654;23.370;2023-04-03T14:59:09;8.52;;;5.80;;
36931;SDS011;22847;42.654;23.370;2023-04-03T15:01:37;12.18;;;6.30;;
36931;SDS011;22847;42.654;23.370;2023-04-03T15:04:13;7.35;;;5.05;;
36931;SDS011;22847;42.654;23.370;2023-04-03T15:06:40;8.77;;;5.78;;
36931;SDS011;22847;42.654;23.370;2023-04-03T15:09:11;8.77;;;4.40;;
36931;SDS011;22847;42.654;23.370;2023-04-03T15:11:44;7.05;;;4.55;;
36931;SDS011;22847;42.654;23.370;2023-04-03T15:14:10;5.75;;;4.20;;
36931;SDS011;22847;42.654;23.370;2023-04-03T15:16:35;6.53;;;4.18;;
36931;SDS011;22847;42.654;23.370;2023-04-03T15:19:01;9.82;;;4.35;;
36931;SDS011;22847;42.654;23.370;2023-04-03T15:21:26;6.13;;;4.03;;
36931;SDS011;22847;42.654;23.370;2023-04-03T15:23:52;5.90;;;3.58;;
36931;SDS011;22847;42.654;23.370;2023-04-03T15:26:17;5.15;;;3.97;;
36931;SDS011;22847;42.654;23.370;2023-04-03T15:28:42;7.60;;;4.00;;
36931;SDS011;22847;42.654;23.370;2023-04-03T15:31:09;8.00;;;5.68;;
36931;SDS011;22847;42.654;23.370;2023-04-03T15:33:35;7.10;;;3.75;;
36931;SDS011;22847;42.654;23.370;2023-04-03T15:36:01;8.02;;;4.20;;
36931;SDS011;22847;42.654;23.370;2023-04-03T15:38:27;6.70;;;3.97;;
36931;SDS011;22847;42.654;23.370;2023-04-03T15:40:53;8.27;;;4.43;;
36931;SDS011;22847;42.654;23.370;2023-04-03T15:43:19;8.80;;;4.70;;
36931;SDS011;22847;42.654;23.370;2023-04-03T15:45:45;3.60;;;2.78;;
36931;SDS011;22847;42.654;23.370;2023-04-03T15:48:10;3.45;;;2.72;;
36931;SDS011;22847;42.654;23.370;2023-04-03T15:50:37;4.50;;;2.80;;
36931;SDS011;22847;42.654;23.370;2023-04-03T15:53:03;8.07;;;4.10;;
36931;SDS011;22847;42.654;23.370;2023-04-03T15:55:29;6.95;;;4.30;;
36931;SDS011;22847;42.654;23.370;2023-04-03T15:57:57;4.95;;;3.53;;
36931;SDS011;22847;42.654;23.370;2023-04-03T16:00:23;5.70;;;3.75;;
36931;SDS011;22847;42.654;23.370;2023-04-03T16:02:51;6.43;;;3.88;;
36931;SDS011;22847;42.654;23.370;2023-04-03T16:05:22;4.78;;;4.00;;
36931;SDS011;22847;42.654;23.370;2023-04-03T16:07:48;6.95;;;4.30;;
36931;SDS011;22847;42.654;23.370;2023-04-03T16:10:14;6.97;;;4.55;;
36931;SDS011;22847;42.654;23.370;2023-04-03T16:12:41;7.03;;;4.97;;
36931;SDS011;22847;42.654;23.370;2023-04-03T16:15:06;7.05;;;5.13;;
36931;SDS011;22847;42.654;23.370;2023-04-03T16:17:32;7.68;;;5.32;;
36931;SDS011;22847;42.654;23.370;2023-04-03T16:20:00;9.45;;;6.45;;
36931;SDS011;22847;42.654;23.370;2023-04-03T16:22:27;14.82;;;6.85;;
36931;SDS011;22847;42.654;23.370;2023-04-03T16:24:53;10.13;;;6.10;;
36931;SDS011;22847;42.654;23.370;2023-04-03T16:27:20;8.80;;;5.40;;
36931;SDS011;22847;42.654;23.370;2023-04-03T16:29:46;6.47;;;4.40;;
36931;SDS011;22847;42.654;23.370;2023-04-03T16:32:11;5.55;;;4.32;;
36931;SDS011;22847;42.654;23.370;2023-04-03T16:34:38;6.25;;;4.07;;
36931;SDS011;22847;42.654;23.370;2023-04-03T16:37:05;5.78;;;4.18;;
36931;SDS011;22847;42.654;23.370;2023-04-03T16:39:33;6.20;;;3.97;;
36931;SDS011;22847;42.654;23.370;2023-04-03T16:41:59;9.13;;;5.13;;